マガダン の空港の天気 - METARとTAF

マガダン・ソコル空港 ( UHMM / GDX ) - ロシア マガダン
飛行場実況気象(Metar)
観測時間01/29 17:30 MAGT (01/29 06:30 UTC)
風向・風速北 6m/s
視程10km以上
天気現象
全天の4割程度の雲 雲底高度 1220m
気温-6℃
湿度49%
気圧1001hPa
METARUHMM 290630Z 35006MPS 9999 SCT040 M06/M15 Q1001 R10/85//50 NOSIG RMK QFE736 R28/32005MPS
過去の天気等 Google飛行場航空写真 Wunderground天気予報

過去48時間のMETAR

飛行場予報(TAF)
発表時間: 1/29 15:50 MAGT (1/29 04:50 UTC)
予報対象時間: 29日17時 MAGT ~ 30日23時 MAGT
風向・風速北 6m/s 瞬間風速 15m/s
視程10km以上
全天の8割程度の積乱雲 雲底高度 910m
29日17時 MAGT ~ 30日11時 MAGT に一時的に
視程3100m
天気現象弱いしゅう雪
全天の8割程度の積乱雲 雲底高度 460m
TAF UHMM 290450Z 2906/3012 36006G15MPS 9999 BKN030CB
TEMPO 2906/2924 3100 -SHSN BKN015CB